Time;durP1;ratioP1;P1;durP2;ratioP2;P2;SDS_P1;SDS_P2;PMS_P1;PMS_P2;Temp;Humidity;BMP_temperature;BMP_pressure;BME280_temperature;BME280_humidity;BME280_pressure;Samples;Min_cycle;Max_cycle;Signal;HPM_P1;HPM_P2
2022/09/15 00:02:09;;;;;;;34.92;22.10;;;;;;;;;;8427448;28;20684;-84
2022/09/15 00:06:12;;;;;;;34.33;21.35;;;;;;;;;;8413203;28;20049;-84
2022/09/15 00:10:16;;;;;;;35.03;21.33;;;;;;;;;;8421313;28;20097;-87
2022/09/15 00:14:19;;;;;;;40.75;20.88;;;;;;;;;;8417933;28;20048;-81
2022/09/15 00:18:21;;;;;;;35.05;22.02;;;;;;;;;;8423205;28;20474;-88
2022/09/15 00:22:25;;;;;;;37.33;21.63;;;;;;;;;;8438307;28;20051;-87
2022/09/15 00:26:30;;;;;;;35.50;22.55;;;;;;;;;;8419285;28;20072;-81
2022/09/15 00:30:32;;;;;;;29.67;19.15;;;;;;;;;;8423699;28;20044;-81
2022/09/15 00:34:35;;;;;;;34.08;21.33;;;;;;;;;;8435281;28;20043;-87
2022/09/15 00:38:38;;;;;;;33.30;21.05;;;;;;;;;;8422786;28;20052;-82
2022/09/15 00:42:42;;;;;;;34.85;21.30;;;;;;;;;;8431967;28;20384;-82
2022/09/15 00:46:48;;;;;;;32.83;21.50;;;;;;;;;;8437744;28;20036;-86
2022/09/15 00:50:54;;;;;;;34.88;21.10;;;;;;;;;;8407254;28;20045;-83
2022/09/15 00:55:01;;;;;;;34.08;21.35;;;;;;;;;;8435594;28;20044;-89
2022/09/15 00:59:09;;;;;;;28.83;18.02;;;;;;;;;;8414152;28;20040;-81
2022/09/15 01:03:11;;;;;;;24.35;15.95;;;;;;;;;;8428659;28;20052;-81
2022/09/15 01:07:18;;;;;;;24.92;16.48;;;;;;;;;;8411814;28;20465;-81
2022/09/15 01:11:21;;;;;;;25.85;16.88;;;;;;;;;;8404384;28;20055;-81
2022/09/15 01:15:31;;;;;;;28.85;19.35;;;;;;;;;;8412630;28;20447;-81
2022/09/15 01:20:07;;;;;;;28.15;18.52;;;;;;;;;;8399085;28;20130;-81
2022/09/15 01:24:44;;;;;;;28.70;17.63;;;;;;;;;;8399185;28;20503;-82
2022/09/15 01:29:13;;;;;;;31.80;19.10;;;;;;;;;;8398893;28;20044;-81
2022/09/15 01:33:29;;;;;;;27.90;18.92;;;;;;;;;;8405014;28;20052;-82
2022/09/15 01:37:37;;;;;;;30.65;18.92;;;;;;;;;;8432803;28;20044;-82
2022/09/15 01:41:44;;;;;;;31.75;19.85;;;;;;;;;;8429161;28;20475;-81
2022/09/15 01:45:49;;;;;;;31.00;19.70;;;;;;;;;;8403821;28;20488;-81
2022/09/15 01:49:57;;;;;;;29.08;19.27;;;;;;;;;;8399267;28;20464;-83
2022/09/15 01:54:02;;;;;;;30.67;18.80;;;;;;;;;;8399645;28;20049;-83
2022/09/15 01:58:05;;;;;;;31.00;18.55;;;;;;;;;;8398557;28;20048;-82
2022/09/15 02:02:12;;;;;;;29.40;18.38;;;;;;;;;;8398004;28;20094;-83
2022/09/15 02:06:22;;;;;;;30.20;19.42;;;;;;;;;;8398095;28;20386;-82
2022/09/15 02:10:32;;;;;;;28.10;17.48;;;;;;;;;;8411899;28;20048;-82
2022/09/15 02:14:47;;;;;;;29.63;19.00;;;;;;;;;;8414324;28;20046;-82
2022/09/15 02:19:07;;;;;;;33.80;18.23;;;;;;;;;;8408394;28;20499;-82
2022/09/15 02:23:16;;;;;;;30.52;19.20;;;;;;;;;;8397185;28;20044;-82
2022/09/15 02:27:23;;;;;;;39.60;20.98;;;;;;;;;;8397348;28;20041;-84
2022/09/15 02:31:27;;;;;;;34.28;21.10;;;;;;;;;;8396743;28;20044;-82
2022/09/15 02:35:31;;;;;;;36.53;21.75;;;;;;;;;;8396458;28;20049;-82
2022/09/15 02:39:38;;;;;;;42.00;21.52;;;;;;;;;;8396460;28;20075;-82
2022/09/15 02:43:45;;;;;;;47.60;21.08;;;;;;;;;;8396305;28;20049;-82
2022/09/15 02:47:49;;;;;;;41.38;23.95;;;;;;;;;;8395543;28;20047;-83
2022/09/15 02:51:51;;;;;;;35.35;20.40;;;;;;;;;;8396110;28;20064;-82
2022/09/15 02:55:55;;;;;;;43.92;23.23;;;;;;;;;;8404929;28;20105;-82
2022/09/15 03:00:13;;;;;;;42.05;23.08;;;;;;;;;;8401059;28;20048;-83
2022/09/15 03:04:16;;;;;;;40.53;22.52;;;;;;;;;;8410245;28;20040;-82
2022/09/15 03:08:18;;;;;;;43.20;23.17;;;;;;;;;;8409715;28;20109;-82
2022/09/15 03:12:23;;;;;;;38.03;22.70;;;;;;;;;;8395628;28;20052;-83
2022/09/15 03:16:26;;;;;;;45.03;24.38;;;;;;;;;;8395690;28;20051;-82
2022/09/15 03:20:29;;;;;;;44.78;23.33;;;;;;;;;;8395632;28;20049;-82
2022/09/15 03:24:32;;;;;;;49.05;23.35;;;;;;;;;;8395660;28;20051;-82
2022/09/15 03:28:36;;;;;;;43.22;21.73;;;;;;;;;;8395419;28;20040;-83
2022/09/15 03:32:39;;;;;;;52.72;23.27;;;;;;;;;;8395297;28;20055;-82
2022/09/15 03:36:42;;;;;;;59.28;22.83;;;;;;;;;;8395366;28;20101;-83
2022/09/15 03:40:44;;;;;;;57.63;27.60;;;;;;;;;;8395225;28;20056;-82
2022/09/15 03:44:48;;;;;;;47.75;23.02;;;;;;;;;;8395100;28;20055;-83
2022/09/15 03:48:51;;;;;;;51.15;26.13;;;;;;;;;;8395336;28;20045;-84
2022/09/15 03:52:53;;;;;;;55.92;25.88;;;;;;;;;;8395150;28;20072;-83
2022/09/15 03:56:56;;;;;;;43.83;22.27;;;;;;;;;;8400079;28;20048;-86
2022/09/15 04:01:00;;;;;;;43.35;21.40;;;;;;;;;;8412615;28;20435;-83
2022/09/15 04:05:02;;;;;;;47.30;23.33;;;;;;;;;;8415672;28;20050;-83
2022/09/15 04:09:05;;;;;;;47.00;23.92;;;;;;;;;;8401086;28;20656;-83
2022/09/15 04:13:08;;;;;;;41.80;22.98;;;;;;;;;;8430438;28;20043;-90
2022/09/15 04:17:14;;;;;;;44.60;21.17;;;;;;;;;;8436703;28;20556;-89
2022/09/15 04:21:18;;;;;;;44.95;23.20;;;;;;;;;;8436612;28;20097;-84
2022/09/15 04:25:21;;;;;;;47.97;24.45;;;;;;;;;;8434754;28;20048;-86
2022/09/15 04:29:23;;;;;;;47.55;25.33;;;;;;;;;;8433951;28;20449;-83
2022/09/15 04:33:27;;;;;;;46.58;23.35;;;;;;;;;;8431734;28;20463;-84
2022/09/15 04:37:30;;;;;;;55.78;24.95;;;;;;;;;;8434360;28;20100;-83
2022/09/15 04:41:33;;;;;;;53.08;24.05;;;;;;;;;;8425489;28;20083;-83
2022/09/15 04:45:36;;;;;;;48.88;22.60;;;;;;;;;;8430592;28;20038;-83
2022/09/15 04:49:39;;;;;;;43.75;21.75;;;;;;;;;;8434194;28;20044;-83
2022/09/15 04:53:43;;;;;;;42.40;21.25;;;;;;;;;;8432403;28;20050;-83
2022/09/15 04:57:45;;;;;;;44.22;20.05;;;;;;;;;;8432742;28;20071;-83
2022/09/15 05:01:49;;;;;;;42.03;21.52;;;;;;;;;;8430718;28;20047;-89
2022/09/15 05:05:52;;;;;;;38.63;18.50;;;;;;;;;;8433537;28;20040;-84
2022/09/15 05:09:55;;;;;;;43.92;22.20;;;;;;;;;;8436041;28;20062;-83
2022/09/15 05:13:57;;;;;;;40.13;23.17;;;;;;;;;;8433863;28;20456;-84
2022/09/15 05:18:00;;;;;;;37.47;22.13;;;;;;;;;;8430835;28;20044;-90
2022/09/15 05:22:04;;;;;;;36.15;21.55;;;;;;;;;;8428433;28;20086;-89
2022/09/15 05:26:12;;;;;;;36.00;21.25;;;;;;;;;;8428793;28;20060;-84
2022/09/15 05:30:14;;;;;;;37.85;21.30;;;;;;;;;;8431310;28;20059;-85
2022/09/15 05:34:17;;;;;;;33.95;19.45;;;;;;;;;;8428404;28;20044;-83
2022/09/15 05:38:21;;;;;;;34.47;20.65;;;;;;;;;;8405766;28;20377;-83
2022/09/15 05:42:24;;;;;;;35.30;21.25;;;;;;;;;;8398176;28;20040;-88
2022/09/15 05:46:27;;;;;;;34.65;20.98;;;;;;;;;;8431176;28;20495;-83
2022/09/15 05:50:30;;;;;;;38.70;22.17;;;;;;;;;;8424564;28;20040;-83
2022/09/15 05:54:34;;;;;;;47.85;24.67;;;;;;;;;;8398019;28;20048;-83
2022/09/15 05:58:39;;;;;;;52.90;22.67;;;;;;;;;;8420569;28;20051;-83
2022/09/15 06:02:41;;;;;;;46.13;21.75;;;;;;;;;;8420918;28;20094;-84
2022/09/15 06:06:44;;;;;;;50.00;23.70;;;;;;;;;;8433858;28;20052;-87
2022/09/15 06:10:48;;;;;;;41.55;21.63;;;;;;;;;;8429290;28;20119;-83
2022/09/15 06:14:51;;;;;;;50.35;22.92;;;;;;;;;;8431774;28;20403;-88
2022/09/15 06:18:54;;;;;;;45.90;23.30;;;;;;;;;;8420225;28;20051;-85
2022/09/15 06:22:57;;;;;;;47.97;23.67;;;;;;;;;;8414235;28;20134;-83
2022/09/15 06:27:01;;;;;;;44.58;23.48;;;;;;;;;;8397260;28;20047;-85
2022/09/15 06:31:04;;;;;;;38.38;20.40;;;;;;;;;;8432253;28;20073;-86
2022/09/15 06:35:06;;;;;;;34.80;20.85;;;;;;;;;;8428858;28;20114;-83
2022/09/15 06:39:09;;;;;;;38.50;20.17;;;;;;;;;;8430392;28;20117;-83
2022/09/15 06:43:13;;;;;;;30.23;19.10;;;;;;;;;;8428122;28;20123;-86
2022/09/15 06:47:16;;;;;;;30.65;16.50;;;;;;;;;;8417929;28;20070;-83
2022/09/15 06:51:20;;;;;;;25.02;15.77;;;;;;;;;;8410944;28;20055;-83
2022/09/15 06:55:23;;;;;;;26.13;17.13;;;;;;;;;;8401490;28;20066;-83
2022/09/15 06:59:27;;;;;;;28.65;15.57;;;;;;;;;;8424900;28;20047;-84
2022/09/15 07:03:36;;;;;;;23.30;14.10;;;;;;;;;;8426940;28;20048;-84
2022/09/15 07:07:39;;;;;;;28.02;16.45;;;;;;;;;;8409574;28;20129;-83
2022/09/15 07:11:41;;;;;;;21.92;15.07;;;;;;;;;;8422947;28;20554;-83
2022/09/15 07:15:51;;;;;;;16.75;11.13;;;;;;;;;;8424132;28;20135;-84
2022/09/15 07:19:54;;;;;;;15.55;10.82;;;;;;;;;;8411867;28;20052;-84
2022/09/15 07:23:57;;;;;;;14.38;9.20;;;;;;;;;;8424192;28;20043;-87
2022/09/15 07:28:00;;;;;;;14.07;9.60;;;;;;;;;;8395307;28;20048;-86
2022/09/15 07:32:04;;;;;;;16.42;11.10;;;;;;;;;;8422011;28;20047;-84
2022/09/15 07:36:09;;;;;;;17.92;12.30;;;;;;;;;;8425197;28;20342;-88
2022/09/15 07:40:11;;;;;;;18.48;12.32;;;;;;;;;;8406786;28;20097;-87
2022/09/15 07:44:14;;;;;;;16.95;12.13;;;;;;;;;;8404012;28;20071;-82
2022/09/15 07:48:18;;;;;;;20.10;12.52;;;;;;;;;;8414363;28;20113;-82
2022/09/15 07:52:20;;;;;;;19.30;12.70;;;;;;;;;;8399980;28;20138;-82
2022/09/15 07:56:23;;;;;;;17.80;13.32;;;;;;;;;;8395291;28;20052;-82
2022/09/15 08:00:26;;;;;;;18.50;13.07;;;;;;;;;;8399579;28;20041;-83
2022/09/15 08:04:30;;;;;;;21.25;14.25;;;;;;;;;;8412932;28;20071;-83
2022/09/15 08:08:33;;;;;;;18.50;14.88;;;;;;;;;;8425122;28;20055;-84
2022/09/15 08:12:35;;;;;;;18.40;14.70;;;;;;;;;;8437998;28;20104;-83
2022/09/15 08:16:38;;;;;;;20.38;15.20;;;;;;;;;;8396915;28;20392;-83
2022/09/15 08:20:43;;;;;;;20.83;14.15;;;;;;;;;;8417712;28;20052;-84
2022/09/15 08:24:45;;;;;;;17.58;14.48;;;;;;;;;;8422597;28;20484;-83
2022/09/15 08:28:48;;;;;;;20.38;16.27;;;;;;;;;;8423236;28;20044;-88
2022/09/15 08:32:51;;;;;;;21.70;16.10;;;;;;;;;;8424791;28;20048;-86
2022/09/15 08:36:55;;;;;;;22.38;14.73;;;;;;;;;;8420955;28;20101;-84
2022/09/15 08:41:00;;;;;;;20.05;14.93;;;;;;;;;;8425152;28;20161;-86
2022/09/15 08:45:08;;;;;;;19.92;15.13;;;;;;;;;;8426795;28;20540;-89
2022/09/15 08:49:15;;;;;;;20.92;14.43;;;;;;;;;;8426405;28;20543;-90
2022/09/15 08:53:25;;;;;;;24.08;16.15;;;;;;;;;;8428726;28;20039;-84
2022/09/15 08:57:28;;;;;;;22.48;16.13;;;;;;;;;;8425793;28;20044;-88
2022/09/15 09:01:41;;;;;;;20.92;16.17;;;;;;;;;;8427505;28;20471;-86
2022/09/15 09:05:52;;;;;;;25.40;16.05;;;;;;;;;;8423231;28;20044;-84
2022/09/15 09:10:00;;;;;;;29.70;17.88;;;;;;;;;;8399203;28;20052;-88
2022/09/15 09:14:11;;;;;;;23.92;16.02;;;;;;;;;;8397744;28;20094;-88
2022/09/15 09:18:37;;;;;;;24.53;17.73;;;;;;;;;;8399603;28;20206;-83
2022/09/15 09:22:44;;;;;;;24.08;17.73;;;;;;;;;;8378949;28;20076;-88
2022/09/15 09:26:53;;;;;;;29.13;17.65;;;;;;;;;;8399428;28;20472;-89
2022/09/15 09:30:59;;;;;;;28.50;17.33;;;;;;;;;;8407185;28;20121;-83
2022/09/15 09:35:05;;;;;;;25.95;15.15;;;;;;;;;;8414876;28;20055;-89
2022/09/15 09:39:11;;;;;;;25.70;16.38;;;;;;;;;;8408175;28;20059;-88
2022/09/15 09:43:15;;;;;;;23.50;14.90;;;;;;;;;;8416877;28;20486;-87
2022/09/15 09:47:19;;;;;;;24.17;14.68;;;;;;;;;;8428499;28;20048;-89
2022/09/15 09:51:35;;;;;;;28.42;16.15;;;;;;;;;;8429751;28;20533;-86
2022/09/15 09:55:56;;;;;;;32.13;18.27;;;;;;;;;;8428572;28;20482;-90
2022/09/15 10:00:32;;;;;;;24.17;15.48;;;;;;;;;;8423601;28;20063;-90
2022/09/15 10:04:46;;;;;;;23.83;13.73;;;;;;;;;;8419247;28;20119;-89
2022/09/15 10:09:09;;;;;;;19.95;12.30;;;;;;;;;;8429818;28;20059;-91
2022/09/15 10:13:18;;;;;;;22.20;11.50;;;;;;;;;;8429981;28;20047;-91
2022/09/15 10:17:45;;;;;;;18.00;11.05;;;;;;;;;;8425267;28;20056;-88
2022/09/15 10:21:51;;;;;;;11.38;7.85;;;;;;;;;;8411396;28;20082;-90
2022/09/15 10:26:00;;;;;;;11.52;5.85;;;;;;;;;;8415636;28;20093;-90
2022/09/15 10:30:22;;;;;;;11.80;3.83;;;;;;;;;;8423932;28;20464;-92
2022/09/15 10:34:43;;;;;;;8.82;3.45;;;;;;;;;;8411892;28;20561;-91
2022/09/15 10:39:08;;;;;;;9.23;3.08;;;;;;;;;;8411192;28;20400;-92
2022/09/15 10:43:25;;;;;;;10.35;3.53;;;;;;;;;;8421927;28;20048;-91
2022/09/15 10:47:51;;;;;;;10.75;3.50;;;;;;;;;;8417414;28;20048;-90
2022/09/15 10:52:16;;;;;;;11.07;3.25;;;;;;;;;;8406140;28;20064;-90
2022/09/15 10:56:33;;;;;;;10.35;3.70;;;;;;;;;;8427660;28;20053;-91
2022/09/15 11:00:46;;;;;;;9.25;3.50;;;;;;;;;;8427345;28;20218;-88
2022/09/15 11:05:23;;;;;;;8.20;3.97;;;;;;;;;;8423981;28;20135;-90
2022/09/15 11:09:34;;;;;;;9.52;3.90;;;;;;;;;;8421805;28;20067;-89
2022/09/15 11:14:07;;;;;;;9.32;3.63;;;;;;;;;;8426404;28;20044;-89
2022/09/15 11:18:43;;;;;;;8.93;4.90;;;;;;;;;;8414485;28;20055;-91
2022/09/15 11:22:53;;;;;;;12.07;4.10;;;;;;;;;;8427535;28;20043;-90
2022/09/15 11:27:20;;;;;;;6.97;3.50;;;;;;;;;;8420253;28;20035;-90
2022/09/15 11:31:40;;;;;;;7.78;3.75;;;;;;;;;;8419827;28;20549;-91
2022/09/15 11:35:49;;;;;;;9.68;8.63;;;;;;;;;;8422583;28;20132;-90
2022/09/15 11:39:59;;;;;;;8.68;3.60;;;;;;;;;;8427083;28;20047;-88
2022/09/15 11:44:13;;;;;;;7.22;3.38;;;;;;;;;;8427889;28;20445;-89
2022/09/15 11:48:21;;;;;;;5.32;3.00;;;;;;;;;;8418576;28;20094;-83
2022/09/15 11:52:49;;;;;;;7.93;3.13;;;;;;;;;;8419143;28;20059;-89
2022/09/15 11:56:53;;;;;;;5.90;3.03;;;;;;;;;;8426742;28;20123;-83
2022/09/15 12:01:06;;;;;;;4.25;2.83;;;;;;;;;;8423878;28;20480;-90
2022/09/15 12:05:14;;;;;;;5.50;2.80;;;;;;;;;;8423975;28;20040;-90
2022/09/15 12:09:19;;;;;;;8.10;3.25;;;;;;;;;;8425980;28;20059;-85
2022/09/15 12:13:24;;;;;;;9.35;3.15;;;;;;;;;;8426066;28;20041;-83
2022/09/15 12:17:34;;;;;;;8.27;3.75;;;;;;;;;;8433307;28;20048;-88
2022/09/15 12:21:45;;;;;;;8.85;3.35;;;;;;;;;;8440885;28;20139;-86
2022/09/15 12:26:03;;;;;;;9.80;3.65;;;;;;;;;;8432277;28;20445;-83
2022/09/15 12:30:06;;;;;;;9.85;3.75;;;;;;;;;;8433601;28;20500;-82
2022/09/15 12:34:36;;;;;;;7.65;3.38;;;;;;;;;;8433599;28;20715;-82
2022/09/15 12:38:38;;;;;;;11.50;4.05;;;;;;;;;;8427679;28;20453;-82
2022/09/15 12:42:46;;;;;;;6.07;3.20;;;;;;;;;;8428083;28;20048;-82
2022/09/15 12:46:51;;;;;;;8.45;3.28;;;;;;;;;;8432458;28;20483;-82
2022/09/15 12:50:58;;;;;;;7.18;3.35;;;;;;;;;;8428906;28;20044;-81
2022/09/15 12:55:03;;;;;;;6.93;3.40;;;;;;;;;;8411079;28;20052;-88
2022/09/15 12:59:12;;;;;;;5.43;3.40;;;;;;;;;;8417967;28;21108;-82
2022/09/15 13:03:44;;;;;;;7.10;3.80;;;;;;;;;;8443194;28;20047;-88
2022/09/15 13:07:59;;;;;;;7.32;3.67;;;;;;;;;;8447628;28;20082;-85
2022/09/15 13:12:06;;;;;;;6.25;2.92;;;;;;;;;;8434255;28;20044;-89
2022/09/15 13:16:15;;;;;;;4.80;3.17;;;;;;;;;;8433182;28;20047;-82
2022/09/15 13:20:24;;;;;;;7.43;2.95;;;;;;;;;;8436851;28;20534;-89
2022/09/15 13:24:43;;;;;;;7.68;3.38;;;;;;;;;;8409924;28;20545;-81
2022/09/15 13:28:47;;;;;;;6.78;2.83;;;;;;;;;;8412765;28;20124;-84
2022/09/15 13:32:59;;;;;;;5.05;2.33;;;;;;;;;;8398781;28;20140;-81
2022/09/15 13:37:19;;;;;;;5.97;2.22;;;;;;;;;;8398898;28;20131;-85
2022/09/15 13:41:50;;;;;;;6.30;2.70;;;;;;;;;;8398975;28;20097;-85
2022/09/15 13:46:03;;;;;;;4.80;2.47;;;;;;;;;;8430980;28;20040;-82
2022/09/15 13:50:14;;;;;;;6.60;2.50;;;;;;;;;;8401011;28;20048;-89
2022/09/15 13:54:18;;;;;;;5.00;2.65;;;;;;;;;;8429878;28;20099;-82
2022/09/15 13:58:25;;;;;;;7.13;2.97;;;;;;;;;;8426583;28;20052;-81
2022/09/15 14:02:28;;;;;;;5.82;2.60;;;;;;;;;;8428003;28;20212;-82
2022/09/15 14:06:36;;;;;;;8.75;2.78;;;;;;;;;;8417478;28;20109;-81
2022/09/15 14:10:45;;;;;;;4.95;2.60;;;;;;;;;;8396324;28;20128;-81
2022/09/15 14:14:52;;;;;;;5.85;2.20;;;;;;;;;;8411181;28;20041;-82
2022/09/15 14:18:58;;;;;;;5.90;2.53;;;;;;;;;;8397412;28;20043;-81
2022/09/15 14:23:01;;;;;;;5.15;2.50;;;;;;;;;;8397856;28;20127;-81
2022/09/15 14:27:09;;;;;;;7.20;2.80;;;;;;;;;;8399459;28;20048;-82
2022/09/15 14:31:14;;;;;;;9.50;3.10;;;;;;;;;;8400167;28;20048;-82
2022/09/15 14:35:20;;;;;;;6.50;2.75;;;;;;;;;;8397211;28;20074;-81
2022/09/15 14:39:23;;;;;;;8.13;2.63;;;;;;;;;;8406726;28;20079;-82
2022/09/15 14:43:28;;;;;;;10.35;3.10;;;;;;;;;;8396668;28;20040;-82
2022/09/15 14:47:32;;;;;;;6.38;2.70;;;;;;;;;;8396471;28;20398;-81
2022/09/15 14:51:35;;;;;;;7.60;3.40;;;;;;;;;;8406925;28;20380;-81
2022/09/15 14:55:54;;;;;;;8.38;3.45;;;;;;;;;;8399829;28;20041;-81
2022/09/15 15:00:00;;;;;;;20.27;10.63;;;;;;;;;;8396302;28;20083;-81
2022/09/15 15:04:27;;;;;;;11.60;6.65;;;;;;;;;;8425238;28;20500;-89
2022/09/15 15:08:39;;;;;;;12.23;6.55;;;;;;;;;;8432072;28;20075;-89
2022/09/15 15:12:45;;;;;;;11.05;5.32;;;;;;;;;;8428202;28;20039;-84
2022/09/15 15:16:57;;;;;;;12.13;4.75;;;;;;;;;;8428269;28;20059;-90
2022/09/15 15:21:06;;;;;;;15.75;5.47;;;;;;;;;;8403129;28;20541;-86
2022/09/15 15:25:28;;;;;;;11.80;5.72;;;;;;;;;;8425511;28;20063;-87
2022/09/15 15:29:42;;;;;;;10.25;4.70;;;;;;;;;;8422450;28;20047;-85
2022/09/15 15:33:54;;;;;;;13.27;5.28;;;;;;;;;;8423712;28;20043;-84
2022/09/15 15:38:05;;;;;;;11.80;4.30;;;;;;;;;;8424964;28;20052;-88
2022/09/15 15:42:12;;;;;;;8.65;4.70;;;;;;;;;;8426343;28;20036;-88
2022/09/15 15:46:48;;;;;;;12.35;4.55;;;;;;;;;;8426733;28;20047;-84
2022/09/15 15:50:50;;;;;;;9.35;4.80;;;;;;;;;;8414798;28;20066;-83
2022/09/15 15:54:57;;;;;;;7.75;4.60;;;;;;;;;;8428213;28;20423;-81
2022/09/15 15:58:59;;;;;;;12.00;4.57;;;;;;;;;;8429230;28;20052;-87
2022/09/15 16:03:02;;;;;;;9.20;5.10;;;;;;;;;;8429351;28;20051;-85
2022/09/15 16:07:05;;;;;;;11.20;4.80;;;;;;;;;;8428676;28;20147;-86
2022/09/15 16:11:12;;;;;;;9.38;4.28;;;;;;;;;;8428674;28;20044;-85
2022/09/15 16:15:17;;;;;;;11.15;3.65;;;;;;;;;;8428623;28;20487;-83
2022/09/15 16:19:20;;;;;;;9.38;4.25;;;;;;;;;;8429820;28;20059;-89
2022/09/15 16:23:23;;;;;;;10.55;4.50;;;;;;;;;;8413400;28;20059;-83
2022/09/15 16:27:29;;;;;;;12.60;4.32;;;;;;;;;;8431184;28;20147;-90
2022/09/15 16:31:33;;;;;;;11.73;4.80;;;;;;;;;;8432122;28;20404;-89
2022/09/15 16:35:39;;;;;;;11.80;4.55;;;;;;;;;;8427940;28;20040;-88
2022/09/15 16:39:41;;;;;;;10.48;4.93;;;;;;;;;;8429412;28;20089;-82
2022/09/15 16:43:47;;;;;;;9.38;4.60;;;;;;;;;;8430001;28;20046;-90
2022/09/15 16:47:49;;;;;;;9.18;3.30;;;;;;;;;;8421873;28;20125;-82
2022/09/15 16:51:52;;;;;;;10.05;4.47;;;;;;;;;;8423163;28;20055;-82
2022/09/15 16:55:55;;;;;;;10.40;4.47;;;;;;;;;;8426784;28;20044;-81
2022/09/15 16:59:59;;;;;;;12.57;4.60;;;;;;;;;;8420345;28;20079;-86
2022/09/15 17:04:02;;;;;;;5.90;3.80;;;;;;;;;;8428481;28;20076;-83
2022/09/15 17:08:08;;;;;;;11.27;4.10;;;;;;;;;;8400595;28;20117;-89
2022/09/15 17:12:18;;;;;;;10.38;4.50;;;;;;;;;;8420678;28;20496;-88
2022/09/15 17:16:35;;;;;;;10.68;5.13;;;;;;;;;;8428507;28;20048;-86
2022/09/15 17:20:45;;;;;;;10.80;4.50;;;;;;;;;;8425233;28;20044;-82
2022/09/15 17:24:58;;;;;;;10.10;4.72;;;;;;;;;;8413107;28;20179;-83
2022/09/15 17:29:08;;;;;;;10.83;5.00;;;;;;;;;;8399853;28;20106;-82
2022/09/15 17:33:18;;;;;;;11.45;4.82;;;;;;;;;;8399353;28;20404;-82
2022/09/15 17:37:27;;;;;;;8.15;4.85;;;;;;;;;;8398998;28;20061;-82
2022/09/15 17:41:38;;;;;;;10.65;5.05;;;;;;;;;;8399569;28;20052;-89
2022/09/15 17:45:52;;;;;;;10.75;4.95;;;;;;;;;;8399033;28;20045;-85
2022/09/15 17:50:05;;;;;;;12.23;5.07;;;;;;;;;;8399025;28;20066;-90
2022/09/15 17:54:22;;;;;;;11.15;5.32;;;;;;;;;;8420150;28;20067;-89
2022/09/15 17:58:32;;;;;;;15.23;5.38;;;;;;;;;;8431483;28;20036;-81
2022/09/15 18:02:34;;;;;;;13.23;5.53;;;;;;;;;;8427548;28;20043;-81
2022/09/15 18:06:38;;;;;;;17.48;5.47;;;;;;;;;;8428998;28;20129;-86
2022/09/15 18:10:41;;;;;;;12.23;5.30;;;;;;;;;;8428352;28;20042;-88
2022/09/15 18:14:43;;;;;;;12.27;4.78;;;;;;;;;;8429700;28;20039;-82
2022/09/15 18:18:46;;;;;;;12.50;5.50;;;;;;;;;;8424304;28;20036;-81
2022/09/15 18:22:53;;;;;;;10.65;6.30;;;;;;;;;;8397510;28;20075;-81
2022/09/15 18:26:55;;;;;;;11.82;6.28;;;;;;;;;;8397229;28;20048;-82
2022/09/15 18:30:58;;;;;;;9.18;4.75;;;;;;;;;;8397238;28;20047;-85
2022/09/15 18:35:01;;;;;;;16.05;5.82;;;;;;;;;;8397464;28;20079;-81
2022/09/15 18:39:05;;;;;;;13.25;4.88;;;;;;;;;;8396765;28;20041;-85
2022/09/15 18:43:07;;;;;;;11.57;5.32;;;;;;;;;;8396687;28;20131;-82
2022/09/15 18:47:10;;;;;;;14.70;5.93;;;;;;;;;;8396529;28;20094;-81
2022/09/15 18:51:13;;;;;;;12.25;5.90;;;;;;;;;;8396285;28;20050;-81
2022/09/15 18:55:20;;;;;;;13.52;5.80;;;;;;;;;;8396400;28;20412;-81
2022/09/15 18:59:23;;;;;;;10.90;6.00;;;;;;;;;;8396178;28;20056;-82
2022/09/15 19:03:26;;;;;;;11.20;5.53;;;;;;;;;;8406291;28;20092;-83
2022/09/15 19:07:28;;;;;;;11.55;6.05;;;;;;;;;;8399249;28;20057;-81
2022/09/15 19:11:33;;;;;;;13.45;6.35;;;;;;;;;;8395928;28;20044;-82
2022/09/15 19:15:35;;;;;;;12.90;6.65;;;;;;;;;;8395834;28;20051;-81
2022/09/15 19:19:39;;;;;;;16.13;6.80;;;;;;;;;;8396208;28;20120;-83
2022/09/15 19:23:41;;;;;;;17.25;8.25;;;;;;;;;;8395662;28;20661;-81
2022/09/15 19:27:46;;;;;;;23.23;9.40;;;;;;;;;;8394763;28;20123;-82
2022/09/15 19:31:49;;;;;;;17.17;9.35;;;;;;;;;;8401475;28;20047;-89
2022/09/15 19:35:52;;;;;;;17.73;8.73;;;;;;;;;;8403339;28;20067;-81
2022/09/15 19:39:54;;;;;;;17.98;8.20;;;;;;;;;;8395257;28;20135;-81
2022/09/15 19:44:01;;;;;;;15.40;7.40;;;;;;;;;;8395268;28;20055;-81
2022/09/15 19:48:03;;;;;;;13.48;7.60;;;;;;;;;;8395811;28;20052;-82
2022/09/15 19:52:06;;;;;;;17.67;8.13;;;;;;;;;;8395233;28;20041;-81
2022/09/15 19:56:15;;;;;;;14.75;7.55;;;;;;;;;;8395679;28;20464;-82
2022/09/15 20:00:19;;;;;;;13.27;6.40;;;;;;;;;;8395607;28;20373;-81
2022/09/15 20:04:21;;;;;;;11.73;7.03;;;;;;;;;;8409529;28;20393;-82
2022/09/15 20:08:25;;;;;;;13.48;6.47;;;;;;;;;;8394815;28;20068;-81
2022/09/15 20:12:28;;;;;;;16.17;7.38;;;;;;;;;;8394831;28;20047;-81
2022/09/15 20:16:33;;;;;;;13.65;7.50;;;;;;;;;;8395275;28;20545;-81
2022/09/15 20:20:39;;;;;;;15.55;7.57;;;;;;;;;;8394801;28;20044;-83
2022/09/15 20:24:42;;;;;;;12.10;6.80;;;;;;;;;;8394599;28;20121;-81
2022/09/15 20:28:46;;;;;;;10.25;6.60;;;;;;;;;;8395077;28;20049;-82
2022/09/15 20:32:50;;;;;;;11.80;6.97;;;;;;;;;;8394449;28;20048;-82
2022/09/15 20:36:53;;;;;;;12.35;6.93;;;;;;;;;;8394965;28;20494;-81
2022/09/15 20:40:56;;;;;;;12.38;6.75;;;;;;;;;;8399506;28;20513;-82
2022/09/15 20:44:58;;;;;;;14.30;7.05;;;;;;;;;;8400269;28;20045;-81
2022/09/15 20:49:02;;;;;;;16.38;7.32;;;;;;;;;;8414332;28;20044;-82
2022/09/15 20:53:05;;;;;;;16.88;7.55;;;;;;;;;;8405679;28;20048;-82
2022/09/15 20:57:08;;;;;;;12.32;6.95;;;;;;;;;;8399955;28;20041;-82
2022/09/15 21:01:12;;;;;;;13.18;6.68;;;;;;;;;;8402815;28;20043;-81
2022/09/15 21:05:17;;;;;;;13.90;7.72;;;;;;;;;;8417759;28;20048;-81
2022/09/15 21:09:19;;;;;;;14.52;7.60;;;;;;;;;;8399320;28;20055;-82
2022/09/15 21:13:23;;;;;;;12.38;7.13;;;;;;;;;;8400092;28;20502;-81
2022/09/15 21:17:27;;;;;;;12.52;6.45;;;;;;;;;;8399435;28;20048;-87
2022/09/15 21:21:33;;;;;;;15.35;6.70;;;;;;;;;;8399297;28;20045;-83
2022/09/15 21:25:35;;;;;;;18.52;7.72;;;;;;;;;;8399712;28;20045;-81
2022/09/15 21:29:38;;;;;;;13.63;8.43;;;;;;;;;;8417016;28;20040;-87
2022/09/15 21:33:41;;;;;;;16.42;8.93;;;;;;;;;;8422305;28;20044;-81
2022/09/15 21:37:45;;;;;;;15.90;8.32;;;;;;;;;;8420641;28;20487;-82
2022/09/15 21:41:47;;;;;;;16.25;8.27;;;;;;;;;;8426432;28;20072;-81
2022/09/15 21:45:55;;;;;;;15.27;9.25;;;;;;;;;;8422575;28;20052;-82
2022/09/15 21:50:00;;;;;;;17.30;8.88;;;;;;;;;;8416833;28;20068;-82
2022/09/15 21:54:04;;;;;;;16.85;8.30;;;;;;;;;;8421277;28;20472;-83
2022/09/15 21:58:06;;;;;;;13.25;6.95;;;;;;;;;;8417498;28;20123;-82
2022/09/15 22:02:10;;;;;;;13.85;8.40;;;;;;;;;;8420264;28;20036;-88
2022/09/15 22:06:13;;;;;;;14.95;7.90;;;;;;;;;;8429130;28;20047;-82
2022/09/15 22:10:17;;;;;;;14.80;7.53;;;;;;;;;;8429538;28;20499;-87
2022/09/15 22:14:20;;;;;;;15.82;7.32;;;;;;;;;;8430845;28;20048;-82
2022/09/15 22:18:23;;;;;;;16.92;7.00;;;;;;;;;;8429960;28;20452;-82
2022/09/15 22:22:25;;;;;;;14.07;7.43;;;;;;;;;;8429069;28;20044;-84
2022/09/15 22:26:32;;;;;;;12.63;6.80;;;;;;;;;;8423771;28;20063;-88
2022/09/15 22:30:34;;;;;;;13.05;6.82;;;;;;;;;;8426265;28;20044;-89
2022/09/15 22:34:37;;;;;;;15.05;7.22;;;;;;;;;;8427781;28;20040;-81
2022/09/15 22:38:40;;;;;;;15.07;7.30;;;;;;;;;;8428503;28;20576;-82
2022/09/15 22:42:44;;;;;;;11.77;7.00;;;;;;;;;;8428463;28;20127;-87
2022/09/15 22:46:48;;;;;;;12.98;7.80;;;;;;;;;;8428715;28;20048;-81
2022/09/15 22:50:51;;;;;;;26.13;8.20;;;;;;;;;;8419562;28;20047;-81
2022/09/15 22:54:53;;;;;;;20.70;7.93;;;;;;;;;;8430351;28;20441;-82
2022/09/15 22:58:57;;;;;;;13.48;8.10;;;;;;;;;;8430347;28;20403;-82
2022/09/15 23:03:00;;;;;;;13.38;8.18;;;;;;;;;;8427571;28;20051;-82
2022/09/15 23:07:03;;;;;;;13.57;8.05;;;;;;;;;;8427908;28;20583;-81
2022/09/15 23:11:06;;;;;;;15.40;7.25;;;;;;;;;;8415792;28;20468;-81
2022/09/15 23:15:11;;;;;;;19.30;7.93;;;;;;;;;;8418687;28;20040;-88
2022/09/15 23:19:14;;;;;;;13.05;8.35;;;;;;;;;;8412898;28;20048;-81
2022/09/15 23:23:16;;;;;;;19.33;8.55;;;;;;;;;;8419093;28;20040;-81
2022/09/15 23:27:19;;;;;;;17.27;8.48;;;;;;;;;;8415698;28;20063;-87
2022/09/15 23:31:23;;;;;;;20.60;9.10;;;;;;;;;;8410696;28;20476;-81
2022/09/15 23:35:25;;;;;;;20.05;9.43;;;;;;;;;;8410963;28;20435;-82
2022/09/15 23:39:28;;;;;;;15.00;7.55;;;;;;;;;;8414367;28;20048;-82
2022/09/15 23:43:32;;;;;;;15.50;8.95;;;;;;;;;;8411741;28;20045;-81
2022/09/15 23:47:36;;;;;;;13.25;8.52;;;;;;;;;;8415947;28;20048;-87
2022/09/15 23:51:38;;;;;;;17.13;7.90;;;;;;;;;;8400833;28;20044;-84
2022/09/15 23:55:41;;;;;;;13.10;7.55;;;;;;;;;;8411532;28;20044;-83
2022/09/15 23:59:43;;;;;;;15.43;7.63;;;;;;;;;;8433668;28;20056;-81
